首页
METAR-TAF:

METAR-TAF

机场 :

卡杜納, 尼日利亚

纬度: 10-36N, 经度: 007-27E, 海拔: 645米

当前天气观测

该预报发布于6小时和19分钟前的20:00 UTC
风速5节,风向西
温度 23°C
湿度 94%
气压 1013 hPa
能见度10公里或以上
散云层高于900英尺
少量云层高于2000英尺, 积雨云.
雷暴,

METAR: DNKA 242000Z 26005KT 9999 TS SCT009 FEW020CB 23/22 Q1013 NOSIG

时间: 03:19 (02:19 UTC)

预报

该预报发布于3小时和19分钟前的23:00 UTC
预报有效从25日的 00点(UTC)到 26日的 06点(UTC)
风速2节,风向多变
能见度10公里或以上
散云层高于800英尺
几率 30% :
短暂存在
从 25日的 01点(UTC)到 25日的 04点(UTC)
少量云层高于2000英尺, 积雨云.
雷暴
成为
从 25日的 08点(UTC)到 25日的 11点(UTC)
风速10节,风向西南
多云层高于1200英尺
短暂存在
从 25日的 16点(UTC)到 25日的 21点(UTC)
散云层高于1300英尺
少量云层高于2000英尺, 积雨云.
雷暴
几率 40%
从 25日的 17点(UTC)到 25日的 20点(UTC)
风速18节,风向东转东北,有时为35节阵风
能見度: 5000
多云层高于800英尺
少量云层高于1800英尺, 积雨云.
雷暴, 雨
成为
从 25日的 21点(UTC)到 25日的 23点(UTC)
风速2节,风向多变
能见度10公里或以上
1500米以下无云,无积雨云

TAF: DNKA 242300Z 2500/2606 VRB02KT 9999 SCT008 PROB30 TEMPO 2501/2504 TS FEW020CB BECMG 2508/2511 23010KT BKN012 TEMPO 2516/2521 TS SCT013 FEW020CB PROB40 2517/2520 06018G35KT 5000 TSRA BKN008 FEW018CB BECMG 2521/2523 VRB02KT CAVOK

超过4000个机场的气象观测和天气预报(METAR&TAF报告)。

可查询的气象台以黄色和红色小点在地图上表示。

将鼠标移到小点上方,可查看气象台名称。

然后点击查看天气观测和预报。

如需切换地图:点击带黑十字的绿色按钮放大地图;点击带横线的绿色按钮缩小地图;或者点击绿色箭头查看邻近地区的地图。


METAR-TAF: